createdAt,value
2019-05-23T00:00:10.518Z,10.68
2019-05-23T00:02:49.005Z,11.50
2019-05-23T00:05:23.344Z,10.88
2019-05-23T00:07:52.585Z,11.18
2019-05-23T00:10:23.324Z,12.80
2019-05-23T00:12:55.055Z,12.55
2019-05-23T00:15:29.096Z,10.45
2019-05-23T00:18:00.518Z,12.03
2019-05-23T00:20:33.134Z,12.80
2019-05-23T00:23:03.221Z,13.98
2019-05-23T00:25:34.020Z,13.50
2019-05-23T00:28:03.641Z,10.78
2019-05-23T00:30:34.435Z,11.78
2019-05-23T00:33:05.449Z,12.33
2019-05-23T00:35:34.907Z,11.45
2019-05-23T00:38:06.168Z,11.57
2019-05-23T00:40:36.155Z,10.98
2019-05-23T00:43:07.149Z,10.18
2019-05-23T00:45:36.571Z,14.10
2019-05-23T00:48:06.900Z,11.78
2019-05-23T00:50:35.983Z,12.00
2019-05-23T00:53:05.897Z,11.12
2019-05-23T00:55:36.279Z,12.80
2019-05-23T00:58:05.671Z,11.35
2019-05-23T01:00:35.052Z,11.22
2019-05-23T01:03:05.420Z,11.88
2019-05-23T01:05:35.736Z,13.20
2019-05-23T01:08:06.899Z,11.88
2019-05-23T01:10:36.491Z,13.75
2019-05-23T01:13:06.477Z,10.85
2019-05-23T01:15:45.564Z,12.98
2019-05-23T01:18:15.472Z,11.93
2019-05-23T01:21:01.484Z,10.90
2019-05-23T01:23:32.563Z,13.28
2019-05-23T01:26:02.639Z,11.63
2019-05-23T01:28:32.189Z,12.23
2019-05-23T01:31:06.623Z,12.35
2019-05-23T01:33:37.019Z,11.83
2019-05-23T01:36:07.493Z,12.85
2019-05-23T01:38:37.881Z,15.08
2019-05-23T01:41:07.337Z,12.63
2019-05-23T01:43:36.490Z,13.45
2019-05-23T01:46:06.364Z,16.23
2019-05-23T01:48:35.691Z,12.28
2019-05-23T01:51:05.854Z,13.80
2019-05-23T01:53:36.661Z,16.67
2019-05-23T01:56:06.883Z,14.10
2019-05-23T01:58:36.059Z,13.38
2019-05-23T02:01:05.631Z,11.75
2019-05-23T02:03:35.889Z,12.28
2019-05-23T02:06:05.728Z,11.95
2019-05-23T02:08:35.803Z,13.28
2019-05-23T02:11:05.564Z,14.43
2019-05-23T02:13:35.023Z,13.58
2019-05-23T02:16:04.985Z,13.35
2019-05-23T02:18:34.146Z,14.30
2019-05-23T02:21:05.436Z,13.95
2019-05-23T02:23:34.870Z,14.75
2019-05-23T02:26:04.678Z,14.10
2019-05-23T02:28:35.117Z,12.88
2019-05-23T02:31:04.284Z,12.50
2019-05-23T02:33:33.880Z,15.30
2019-05-23T02:36:03.049Z,13.68
2019-05-23T02:38:50.370Z,13.78
2019-05-23T02:41:24.235Z,13.38
2019-05-23T02:43:57.485Z,12.73
2019-05-23T02:46:34.293Z,14.63
2019-05-23T02:49:05.252Z,14.10
2019-05-23T02:51:37.104Z,12.40
2019-05-23T02:54:09.637Z,14.00
2019-05-23T02:56:40.050Z,13.20
2019-05-23T02:59:16.893Z,13.48
2019-05-23T03:02:02.749Z,11.90
2019-05-23T03:04:33.560Z,13.65
2019-05-23T03:07:03.570Z,15.78
2019-05-23T03:09:34.181Z,11.65
2019-05-23T03:12:04.144Z,12.73
2019-05-23T03:14:34.300Z,14.33
2019-05-23T03:17:05.418Z,14.80
2019-05-23T03:19:44.845Z,12.93
2019-05-23T03:22:37.728Z,13.70
2019-05-23T03:25:16.167Z,12.07
2019-05-23T03:27:46.683Z,12.80
2019-05-23T03:30:17.694Z,13.62
2019-05-23T03:32:54.829Z,15.00
2019-05-23T03:35:25.987Z,17.60
2019-05-23T03:37:55.234Z,14.53
2019-05-23T03:40:24.662Z,13.90
2019-05-23T03:42:54.784Z,13.78
2019-05-23T03:45:25.679Z,14.07
2019-05-23T03:47:55.594Z,15.28
2019-05-23T03:50:25.934Z,13.58
2019-05-23T03:52:56.920Z,13.70
2019-05-23T03:55:28.322Z,13.88
2019-05-23T03:57:58.122Z,13.38
2019-05-23T04:00:28.865Z,13.62
2019-05-23T04:02:59.471Z,19.25
2019-05-23T04:05:29.472Z,14.33
2019-05-23T04:07:58.639Z,12.80
2019-05-23T04:10:27.798Z,15.40
2019-05-23T04:12:56.965Z,13.28
2019-05-23T04:15:28.009Z,16.90
2019-05-23T04:17:57.336Z,15.45
2019-05-23T04:20:26.664Z,14.70
2019-05-23T04:22:55.854Z,14.80
2019-05-23T04:25:25.295Z,14.83
2019-05-23T04:27:55.256Z,17.48
2019-05-23T04:30:24.476Z,14.50
2019-05-23T04:32:53.850Z,15.90
2019-05-23T04:35:24.129Z,16.05
2019-05-23T04:37:53.877Z,18.20
2019-05-23T04:40:23.251Z,16.87
2019-05-23T04:42:52.596Z,16.25
2019-05-23T04:45:22.048Z,16.05
2019-05-23T04:47:51.383Z,15.70
2019-05-23T04:50:21.330Z,53.87
2019-05-23T04:52:50.733Z,15.72
2019-05-23T04:55:21.066Z,14.75
2019-05-23T04:57:50.230Z,16.93
2019-05-23T05:00:21.571Z,17.23
2019-05-23T05:02:50.773Z,17.70
2019-05-23T05:05:20.444Z,17.48
2019-05-23T05:07:49.683Z,16.57
2019-05-23T05:10:22.366Z,16.75
2019-05-23T05:12:52.275Z,14.33
2019-05-23T05:15:22.191Z,16.48
2019-05-23T05:17:51.609Z,16.02
2019-05-23T05:20:21.235Z,17.17
2019-05-23T05:22:51.159Z,15.58
2019-05-23T05:25:20.733Z,14.33
2019-05-23T05:27:50.275Z,14.93
2019-05-23T05:30:19.810Z,14.20
2019-05-23T05:32:49.429Z,13.83
2019-05-23T05:35:19.001Z,14.47
2019-05-23T05:37:48.505Z,13.28
2019-05-23T05:40:18.488Z,12.68
2019-05-23T05:42:47.991Z,12.85
2019-05-23T05:45:17.238Z,14.50
2019-05-23T05:47:46.595Z,12.07
2019-05-23T05:50:17.370Z,11.68
2019-05-23T05:52:46.607Z,14.75
2019-05-23T05:55:15.839Z,12.68
2019-05-23T05:57:45.115Z,10.60
2019-05-23T06:00:27.120Z,10.90
2019-05-23T06:03:04.099Z,13.48
2019-05-23T06:05:46.535Z,10.80
2019-05-23T06:08:17.416Z,11.38
2019-05-23T06:10:47.007Z,11.93
2019-05-23T06:13:16.391Z,11.50
2019-05-23T06:15:45.795Z,10.08
2019-05-23T06:18:15.189Z,9.03
2019-05-23T06:20:46.560Z,9.25
2019-05-23T06:23:16.001Z,13.60
2019-05-23T06:25:45.699Z,10.58
2019-05-23T06:28:16.031Z,8.75
2019-05-23T06:30:46.441Z,10.28
2019-05-23T06:33:23.399Z,11.88
2019-05-23T06:35:47.692Z,10.68
2019-05-23T06:38:17.193Z,10.70
2019-05-23T06:40:47.259Z,9.93
2019-05-23T06:43:16.622Z,8.50
2019-05-23T06:45:45.736Z,10.45
2019-05-23T06:48:16.658Z,9.20
2019-05-23T06:50:46.098Z,10.82
2019-05-23T06:53:15.378Z,9.60
2019-05-23T06:55:44.605Z,11.38
2019-05-23T06:58:13.953Z,10.58
2019-05-23T07:00:43.370Z,9.73
2019-05-23T07:03:13.395Z,9.50
2019-05-23T07:05:44.077Z,11.65
2019-05-23T07:08:13.575Z,11.63
2019-05-23T07:10:44.669Z,12.82
2019-05-23T07:13:14.153Z,11.90
2019-05-23T07:15:43.750Z,12.37
2019-05-23T07:18:13.592Z,11.68
2019-05-23T07:20:42.770Z,12.47
2019-05-23T07:23:13.377Z,11.08
2019-05-23T07:25:42.561Z,12.43
2019-05-23T07:28:11.927Z,13.00
2019-05-23T07:30:41.146Z,10.23
2019-05-23T07:33:10.410Z,11.80
2019-05-23T07:35:39.581Z,11.60
2019-05-23T07:38:08.765Z,11.48
2019-05-23T07:40:38.112Z,12.35
2019-05-23T07:43:08.494Z,11.03
2019-05-23T07:45:46.068Z,11.25
2019-05-23T07:48:15.343Z,10.75
2019-05-23T07:50:45.521Z,12.28
2019-05-23T07:53:16.328Z,11.50
2019-05-23T07:55:56.614Z,12.40
2019-05-23T07:58:25.785Z,13.65
2019-05-23T08:00:59.301Z,11.38
2019-05-23T08:03:30.346Z,11.60
2019-05-23T08:05:59.682Z,11.18
2019-05-23T08:08:29.019Z,11.93
2019-05-23T08:10:58.123Z,11.28
2019-05-23T08:13:28.347Z,10.35
2019-05-23T08:15:57.611Z,10.55
2019-05-23T08:18:26.959Z,9.98
2019-05-23T08:20:56.137Z,11.68
2019-05-23T08:23:25.644Z,11.85
2019-05-23T08:25:55.444Z,14.80
2019-05-23T08:28:24.779Z,11.18
2019-05-23T08:30:54.746Z,10.72
2019-05-23T08:33:23.961Z,12.03
2019-05-23T08:35:54.869Z,10.35
2019-05-23T08:38:24.317Z,10.50
2019-05-23T08:40:54.531Z,9.90
2019-05-23T08:43:23.781Z,9.65
2019-05-23T08:45:53.226Z,10.38
2019-05-23T08:48:23.174Z,11.73
2019-05-23T08:50:52.543Z,11.40
2019-05-23T08:53:21.998Z,11.03
2019-05-23T08:55:51.704Z,10.55
2019-05-23T08:58:21.603Z,10.53
2019-05-23T09:00:52.127Z,10.55
2019-05-23T09:03:21.779Z,9.28
2019-05-23T09:05:52.543Z,10.05
2019-05-23T09:08:21.995Z,9.83
2019-05-23T09:10:51.188Z,10.95
2019-05-23T09:13:21.185Z,8.98
2019-05-23T09:15:53.068Z,8.98
2019-05-23T09:18:21.375Z,9.43
2019-05-23T09:20:50.553Z,10.05
2019-05-23T09:23:20.052Z,9.20
2019-05-23T09:25:49.240Z,10.80
2019-05-23T09:28:18.775Z,9.08
2019-05-23T09:30:48.231Z,11.33
2019-05-23T09:33:17.544Z,9.48
2019-05-23T09:35:46.897Z,8.70
2019-05-23T09:38:16.370Z,10.48
2019-05-23T09:40:45.919Z,9.18
2019-05-23T09:43:15.332Z,8.20
2019-05-23T09:45:44.715Z,8.93
2019-05-23T09:48:13.855Z,8.65
2019-05-23T09:50:43.142Z,8.43
2019-05-23T09:53:12.323Z,9.45
2019-05-23T09:55:41.427Z,7.37
2019-05-23T09:58:11.051Z,9.50
2019-05-23T10:00:41.820Z,8.88
2019-05-23T10:03:10.912Z,7.92
2019-05-23T10:05:43.312Z,8.25
2019-05-23T10:08:11.431Z,6.85
2019-05-23T10:10:41.396Z,7.80
2019-05-23T10:13:10.819Z,7.70
2019-05-23T10:15:41.629Z,8.83
2019-05-23T10:18:15.861Z,7.65
2019-05-23T10:20:45.185Z,9.58
2019-05-23T10:23:14.568Z,10.20
2019-05-23T10:25:43.808Z,9.65
2019-05-23T10:28:15.230Z,7.00
2019-05-23T10:30:44.542Z,8.65
2019-05-23T10:33:13.912Z,9.65
2019-05-23T10:35:58.997Z,7.50
2019-05-23T10:38:14.155Z,7.10
2019-05-23T10:40:43.646Z,6.85
2019-05-23T10:43:13.247Z,8.70
2019-05-23T10:45:42.344Z,8.55
2019-05-23T10:48:13.905Z,8.03
2019-05-23T10:50:45.203Z,7.75
2019-05-23T10:53:14.886Z,7.97
2019-05-23T10:55:44.061Z,7.55
2019-05-23T10:58:14.872Z,10.40
2019-05-23T11:00:45.021Z,9.00
2019-05-23T11:03:15.073Z,7.40
2019-05-23T11:05:44.360Z,5.62
2019-05-23T11:08:15.325Z,5.55
2019-05-23T11:10:44.565Z,6.10
2019-05-23T11:13:13.738Z,10.48
2019-05-23T11:15:43.854Z,7.25
2019-05-23T11:18:13.280Z,7.12
2019-05-23T11:20:42.604Z,7.97
2019-05-23T11:23:13.686Z,8.05
2019-05-23T11:25:43.471Z,7.05
2019-05-23T11:28:13.077Z,5.95
2019-05-23T11:30:45.654Z,6.33
2019-05-23T11:33:15.684Z,8.05
2019-05-23T11:35:46.180Z,7.80
2019-05-23T11:38:15.485Z,6.35
2019-05-23T11:40:44.935Z,6.28
2019-05-23T11:43:14.302Z,6.42
2019-05-23T11:45:47.502Z,7.87
2019-05-23T11:48:17.336Z,6.17
2019-05-23T11:50:47.047Z,6.25
2019-05-23T11:53:16.360Z,9.60
2019-05-23T11:55:46.089Z,6.30
2019-05-23T11:58:15.319Z,6.95
2019-05-23T12:00:55.503Z,4.97
2019-05-23T12:03:24.850Z,7.30
2019-05-23T12:05:54.175Z,6.72
2019-05-23T12:08:23.473Z,6.40
2019-05-23T12:10:52.614Z,8.13
2019-05-23T12:13:21.959Z,6.40
2019-05-23T12:15:51.440Z,6.80
2019-05-23T12:18:20.866Z,6.12
2019-05-23T12:20:50.664Z,8.18
2019-05-23T12:23:19.909Z,6.65
2019-05-23T12:25:49.636Z,6.12
2019-05-23T12:28:19.260Z,6.90
2019-05-23T12:30:48.721Z,5.42
2019-05-23T12:33:17.869Z,6.28
2019-05-23T12:35:47.087Z,6.10
2019-05-23T12:38:16.396Z,4.85
2019-05-23T12:40:45.560Z,5.05
2019-05-23T12:43:14.773Z,5.17
2019-05-23T12:45:43.951Z,5.22
2019-05-23T12:48:33.005Z,6.55
2019-05-23T12:51:09.708Z,5.83
2019-05-23T12:53:38.845Z,4.95
2019-05-23T12:56:08.266Z,4.42
2019-05-23T12:58:37.411Z,5.58
2019-05-23T13:01:08.311Z,5.28
2019-05-23T13:03:37.458Z,6.92
2019-05-23T13:06:08.020Z,5.78
2019-05-23T13:08:37.394Z,5.05
2019-05-23T13:11:06.687Z,5.58
2019-05-23T13:13:36.007Z,5.12
2019-05-23T13:16:05.514Z,4.80
2019-05-23T13:18:34.809Z,6.40
2019-05-23T13:21:04.237Z,7.47
2019-05-23T13:23:34.125Z,9.08
2019-05-23T13:26:09.721Z,7.28
2019-05-23T13:28:38.938Z,6.67
2019-05-23T13:31:08.294Z,6.75
2019-05-23T13:33:37.137Z,6.73
2019-05-23T13:36:06.167Z,5.97
2019-05-23T13:38:35.302Z,5.50
2019-05-23T13:41:04.406Z,7.00
2019-05-23T13:43:33.795Z,5.27
2019-05-23T13:46:02.653Z,7.87
2019-05-23T13:48:31.512Z,6.47
2019-05-23T13:51:00.689Z,5.70
2019-05-23T13:53:30.665Z,5.93
2019-05-23T13:55:59.752Z,6.30
2019-05-23T13:58:29.031Z,6.60
2019-05-23T14:00:58.269Z,6.23
2019-05-23T14:03:27.470Z,5.57
2019-05-23T14:05:56.357Z,6.63
2019-05-23T14:08:25.389Z,8.07
2019-05-23T14:10:54.973Z,5.40
2019-05-23T14:13:24.639Z,6.60
2019-05-23T14:15:54.030Z,5.17
2019-05-23T14:18:24.553Z,5.17
2019-05-23T14:20:53.545Z,5.20
2019-05-23T14:23:33.230Z,4.73
2019-05-23T14:26:02.743Z,6.10
2019-05-23T14:28:32.234Z,6.23
2019-05-23T14:31:14.351Z,7.13
2019-05-23T14:33:44.860Z,4.97
2019-05-23T14:36:31.710Z,5.83
2019-05-23T14:38:59.624Z,4.10
2019-05-23T14:41:44.205Z,4.80
2019-05-23T14:44:00.636Z,5.00
2019-05-23T14:46:31.183Z,8.07
2019-05-23T14:49:08.246Z,3.90
2019-05-23T14:51:45.097Z,3.30
2019-05-23T14:54:21.574Z,5.77
2019-05-23T14:56:50.500Z,4.57
2019-05-23T14:59:20.020Z,4.93
2019-05-23T15:01:49.752Z,3.23
2019-05-23T15:04:18.814Z,3.97
2019-05-23T15:06:47.729Z,4.73
2019-05-23T15:09:16.628Z,5.47
2019-05-23T15:11:45.666Z,3.50
2019-05-23T15:14:14.501Z,3.53
2019-05-23T15:16:43.393Z,3.20
2019-05-23T15:19:12.170Z,2.37
2019-05-23T15:21:41.418Z,2.50
2019-05-23T15:24:10.440Z,2.80
2019-05-23T15:26:39.472Z,2.20
2019-05-23T15:29:08.411Z,3.57
2019-05-23T15:31:37.327Z,3.27
2019-05-23T15:34:06.214Z,3.80
2019-05-23T15:36:35.367Z,3.63
2019-05-23T15:39:13.216Z,2.87
2019-05-23T15:41:42.223Z,2.90
2019-05-23T15:44:24.510Z,2.97
2019-05-23T15:46:41.558Z,2.60
2019-05-23T15:49:11.808Z,3.57
2019-05-23T15:51:45.066Z,3.57
2019-05-23T15:54:18.219Z,2.67
2019-05-23T15:56:51.386Z,4.60
2019-05-23T15:59:31.194Z,4.20
2019-05-23T16:02:01.679Z,4.03
2019-05-23T16:04:30.573Z,3.53
2019-05-23T16:07:00.222Z,4.10
2019-05-23T16:09:31.023Z,2.97
2019-05-23T16:12:00.100Z,3.03
2019-05-23T16:14:29.361Z,2.90
2019-05-23T16:16:58.376Z,3.13
2019-05-23T16:19:27.490Z,4.70
2019-05-23T16:21:56.734Z,2.30
2019-05-23T16:24:26.301Z,3.33
2019-05-23T16:26:55.588Z,2.77
2019-05-23T16:29:25.011Z,3.40
2019-05-23T16:31:54.172Z,3.97
2019-05-23T16:34:23.324Z,3.23
2019-05-23T16:36:52.258Z,2.90
2019-05-23T16:39:21.195Z,3.10
2019-05-23T16:41:50.128Z,3.23
2019-05-23T16:44:19.211Z,4.00
2019-05-23T16:46:48.097Z,4.13
2019-05-23T16:49:16.945Z,3.87
2019-05-23T16:51:45.832Z,3.13
2019-05-23T16:54:16.551Z,4.17
2019-05-23T16:56:55.986Z,3.37
2019-05-23T16:59:26.532Z,4.73
2019-05-23T17:02:05.575Z,2.60
2019-05-23T17:04:32.756Z,3.30
2019-05-23T17:07:03.381Z,4.27
2019-05-23T17:09:36.965Z,3.03
2019-05-23T17:12:23.913Z,2.33
2019-05-23T17:14:54.781Z,3.07
2019-05-23T17:18:00.835Z,1.60
2019-05-23T17:20:19.609Z,2.10
2019-05-23T17:22:45.997Z,2.20
2019-05-23T17:25:22.646Z,4.80
2019-05-23T17:27:56.065Z,2.47
2019-05-23T17:30:26.541Z,3.50
2019-05-23T17:32:55.909Z,1.70
2019-05-23T17:35:25.700Z,1.47
2019-05-23T17:37:54.555Z,2.27
2019-05-23T17:40:25.381Z,4.13
2019-05-23T17:42:54.011Z,2.40
2019-05-23T17:45:23.987Z,2.20
2019-05-23T17:47:53.233Z,2.53
2019-05-23T17:50:22.441Z,3.33
2019-05-23T17:52:51.287Z,2.60
2019-05-23T17:55:20.272Z,2.73
2019-05-23T17:57:49.192Z,1.87
2019-05-23T18:00:22.731Z,1.97
2019-05-23T18:02:51.599Z,1.50
2019-05-23T18:05:21.384Z,3.27
2019-05-23T18:07:50.711Z,2.90
2019-05-23T18:10:20.243Z,3.02
2019-05-23T18:12:49.381Z,3.33
2019-05-23T18:15:18.639Z,2.17
2019-05-23T18:17:49.612Z,4.17
2019-05-23T18:20:18.896Z,5.53
2019-05-23T18:22:47.761Z,3.20
2019-05-23T18:25:17.932Z,2.25
2019-05-23T18:27:47.365Z,2.10
2019-05-23T18:30:34.192Z,3.00
2019-05-23T18:33:04.306Z,5.00
2019-05-23T18:35:33.526Z,2.50
2019-05-23T18:38:03.113Z,2.87
2019-05-23T18:40:33.057Z,2.40
2019-05-23T18:43:04.476Z,2.12
2019-05-23T18:45:35.478Z,2.40
2019-05-23T18:48:04.903Z,2.90
2019-05-23T18:50:35.280Z,5.15
2019-05-23T18:53:06.469Z,36.28
2019-05-23T18:55:35.834Z,48.48
2019-05-23T18:58:05.822Z,63.75
2019-05-23T19:00:57.938Z,18.95
2019-05-23T19:03:27.533Z,10.40
2019-05-23T19:05:57.042Z,3.37
2019-05-23T19:08:27.147Z,2.42
2019-05-23T19:10:56.422Z,4.37
2019-05-23T19:13:26.754Z,5.83
2019-05-23T19:15:56.448Z,7.62
2019-05-23T19:18:26.170Z,5.72
2019-05-23T19:20:56.327Z,2.95
2019-05-23T19:23:26.024Z,3.98
2019-05-23T19:25:55.444Z,2.45
2019-05-23T19:28:25.665Z,6.27
2019-05-23T19:30:55.105Z,5.45
2019-05-23T19:33:25.070Z,4.55
2019-05-23T19:35:55.027Z,4.40
2019-05-23T19:38:25.360Z,4.58
2019-05-23T19:40:54.481Z,4.67
2019-05-23T19:43:23.693Z,3.83
2019-05-23T19:45:53.281Z,3.65
2019-05-23T19:48:23.286Z,4.45
2019-05-23T19:50:53.021Z,5.35
2019-05-23T19:53:22.345Z,3.35
2019-05-23T19:55:52.248Z,4.78
2019-05-23T19:58:21.541Z,5.47
2019-05-23T20:00:51.400Z,4.37
2019-05-23T20:03:20.668Z,4.37
2019-05-23T20:05:51.448Z,3.47
2019-05-23T20:08:20.823Z,4.65
2019-05-23T20:10:50.064Z,4.17
2019-05-23T20:13:19.297Z,3.33
2019-05-23T20:15:49.029Z,8.50
2019-05-23T20:18:18.723Z,18.27
2019-05-23T20:20:48.054Z,6.40
2019-05-23T20:23:17.882Z,4.20
2019-05-23T20:25:47.033Z,5.67
2019-05-23T20:28:16.154Z,6.40
2019-05-23T20:30:52.623Z,3.85
2019-05-23T20:33:22.108Z,4.85
2019-05-23T20:35:51.607Z,3.17
2019-05-23T20:38:20.891Z,3.55
2019-05-23T20:40:50.036Z,4.47
2019-05-23T20:43:19.353Z,6.10
2019-05-23T20:45:48.760Z,4.70
2019-05-23T20:48:18.440Z,4.50
2019-05-23T20:50:47.733Z,4.58
2019-05-23T20:53:17.008Z,3.42
2019-05-23T20:55:46.350Z,4.40
2019-05-23T20:58:15.939Z,4.58
2019-05-23T21:00:49.869Z,3.77
2019-05-23T21:03:19.510Z,4.90
2019-05-23T21:05:48.866Z,8.13
2019-05-23T21:08:18.019Z,4.08
2019-05-23T21:10:48.714Z,4.12
2019-05-23T21:13:18.312Z,4.90
2019-05-23T21:15:47.809Z,5.25
2019-05-23T21:18:17.049Z,4.35
2019-05-23T21:20:46.242Z,3.72
2019-05-23T21:23:15.509Z,7.15
2019-05-23T21:25:46.534Z,4.10
2019-05-23T21:28:15.735Z,3.60
2019-05-23T21:30:44.957Z,3.70
2019-05-23T21:33:15.683Z,6.62
2019-05-23T21:35:44.889Z,6.37
2019-05-23T21:38:14.047Z,6.85
2019-05-23T21:40:44.778Z,5.80
2019-05-23T21:43:14.279Z,6.00
2019-05-23T21:45:43.476Z,5.33
2019-05-23T21:48:12.879Z,6.85
2019-05-23T21:50:42.280Z,9.40
2019-05-23T21:53:11.419Z,4.75
2019-05-23T21:55:42.051Z,4.80
2019-05-23T21:58:12.854Z,5.87
2019-05-23T22:00:58.311Z,4.58
2019-05-23T22:03:27.858Z,6.87
2019-05-23T22:05:57.001Z,5.35
2019-05-23T22:08:26.211Z,8.03
2019-05-23T22:10:55.535Z,7.65
2019-05-23T22:13:24.979Z,5.40
2019-05-23T22:15:56.335Z,4.62
2019-05-23T22:18:25.816Z,5.97
2019-05-23T22:20:55.580Z,6.40
2019-05-23T22:23:24.726Z,6.37
2019-05-23T22:25:54.162Z,5.20
2019-05-23T22:28:23.483Z,4.62
2019-05-23T22:30:52.690Z,6.10
2019-05-23T22:33:23.409Z,6.92
2019-05-23T22:35:52.493Z,6.22
2019-05-23T22:38:21.571Z,5.70
2019-05-23T22:40:50.824Z,5.90
2019-05-23T22:43:21.337Z,7.45
2019-05-23T22:45:50.854Z,5.08
2019-05-23T22:48:20.297Z,5.08
2019-05-23T22:50:49.451Z,7.10
2019-05-23T22:53:19.010Z,6.92
2019-05-23T22:55:48.151Z,7.05
2019-05-23T22:58:17.832Z,6.37
2019-05-23T23:00:48.569Z,7.35
2019-05-23T23:03:17.789Z,6.05
2019-05-23T23:05:46.959Z,5.50
2019-05-23T23:08:17.207Z,6.83
2019-05-23T23:10:46.369Z,6.90
2019-05-23T23:13:16.275Z,6.22
2019-05-23T23:15:45.445Z,5.83
2019-05-23T23:18:14.644Z,7.08
2019-05-23T23:20:45.901Z,7.87
2019-05-23T23:23:14.602Z,7.12
2019-05-23T23:25:43.680Z,9.75
2019-05-23T23:28:12.820Z,7.90
2019-05-23T23:30:44.520Z,8.15
2019-05-23T23:33:13.730Z,5.78
2019-05-23T23:35:42.900Z,6.90
2019-05-23T23:38:12.044Z,7.25
2019-05-23T23:40:41.197Z,7.67
2019-05-23T23:43:10.508Z,6.75
2019-05-23T23:45:57.623Z,6.10
2019-05-23T23:48:44.922Z,5.87
2019-05-23T23:51:32.006Z,8.03
2019-05-23T23:54:19.050Z,8.28
2019-05-23T23:57:06.011Z,5.92
2019-05-23T23:59:34.472Z,7.10
